Time;durP1;ratioP1;P1;durP2;ratioP2;P2;SDS_P1;SDS_P2;PMS_P1;PMS_P2;Temp;Humidity;BMP_temperature;BMP_pressure;BME280_temperature;BME280_humidity;BME280_pressure;Samples;Min_cycle;Max_cycle;Signal;HPM_P1;HPM_P2
2022/06/21 00:01:27;;;;;;;3.90;1.60;;;9.70;99.90;;;;;;5091279;28;20094;-73
2022/06/21 00:03:54;;;;;;;4.65;1.60;;;9.60;99.90;;;;;;5091424;28;20421;-73
2022/06/21 00:06:23;;;;;;;3.78;1.67;;;9.60;99.90;;;;;;5072598;28;20118;-73
2022/06/21 00:08:49;;;;;;;3.65;1.33;;;9.70;99.90;;;;;;5091212;28;20059;-73
2022/06/21 00:11:30;;;;;;;4.40;1.67;;;9.70;99.90;;;;;;5091345;28;20059;-73
2022/06/21 00:13:56;;;;;;;6.22;1.52;;;9.90;99.90;;;;;;5091261;28;20094;-73
2022/06/21 00:16:24;;;;;;;6.00;2.00;;;10.00;99.90;;;;;;5091247;28;20178;-73
2022/06/21 00:18:50;;;;;;;3.50;1.45;;;10.10;99.90;;;;;;5091253;28;20051;-73
2022/06/21 00:21:31;;;;;;;4.32;1.40;;;10.10;99.90;;;;;;5091300;28;20044;-73
2022/06/21 00:23:57;;;;;;;2.28;1.40;;;10.20;99.90;;;;;;5091137;28;20504;-73
2022/06/21 00:26:26;;;;;;;3.88;1.73;;;10.20;99.90;;;;;;5091127;28;20147;-73
2022/06/21 00:28:52;;;;;;;3.10;1.40;;;10.30;99.90;;;;;;5091157;28;20059;-73
2022/06/21 00:31:39;;;;;;;5.57;1.60;;;10.30;99.90;;;;;;5073108;28;20412;-72
2022/06/21 00:34:15;;;;;;;3.35;1.52;;;10.30;99.90;;;;;;5090770;28;20514;-72
2022/06/21 00:36:41;;;;;;;3.20;1.45;;;10.20;99.90;;;;;;5090699;28;20044;-73
2022/06/21 00:39:10;;;;;;;3.88;1.65;;;10.10;99.90;;;;;;5072785;28;20056;-73
2022/06/21 00:42:01;;;;;;;3.30;1.35;;;10.00;99.90;;;;;;5073001;28;20056;-73
2022/06/21 00:44:39;;;;;;;2.28;1.38;;;10.00;99.90;;;;;;5090978;28;20070;-74
2022/06/21 00:47:27;;;;;;;3.10;1.40;;;9.90;99.90;;;;;;5090977;28;20044;-73
2022/06/21 00:49:56;;;;;;;2.63;1.65;;;9.80;99.90;;;;;;5090927;28;20044;-73
2022/06/21 00:52:30;;;;;;;3.20;1.50;;;9.60;99.90;;;;;;5090680;28;20044;-73
2022/06/21 00:55:15;;;;;;;5.85;1.48;;;9.40;99.90;;;;;;5073179;28;20636;-73
2022/06/21 00:57:53;;;;;;;4.78;1.85;;;9.30;99.90;;;;;;5073166;28;20059;-73
2022/06/21 01:00:32;;;;;;;3.25;1.40;;;9.60;99.90;;;;;;5090934;28;20407;-73
2022/06/21 01:03:02;;;;;;;3.47;1.70;;;9.40;99.90;;;;;;5091367;28;20097;-73
2022/06/21 01:05:31;;;;;;;2.80;1.35;;;9.40;99.90;;;;;;5059846;28;20056;-72
2022/06/21 01:07:57;;;;;;;5.13;1.70;;;9.40;99.90;;;;;;5094356;28;20044;-73
2022/06/21 01:10:24;;;;;;;3.20;1.58;;;9.30;99.90;;;;;;5094531;28;20044;-73
2022/06/21 01:12:58;;;;;;;3.70;1.45;;;9.30;99.90;;;;;;5094492;28;20051;-73
2022/06/21 01:15:30;;;;;;;2.83;1.60;;;9.40;99.90;;;;;;5094295;28;20169;-72
2022/06/21 01:18:00;;;;;;;5.75;1.55;;;9.40;99.90;;;;;;5094166;28;20445;-73
2022/06/21 01:20:28;;;;;;;4.15;1.70;;;9.50;99.90;;;;;;5094282;28;20051;-73
2022/06/21 01:23:29;;;;;;;4.95;2.00;;;9.50;99.90;;;;;;5093998;28;20047;-73
2022/06/21 01:25:55;;;;;;;4.70;1.70;;;9.50;99.90;;;;;;5094202;28;20127;-73
2022/06/21 01:28:21;;;;;;;3.45;1.90;;;9.60;99.90;;;;;;5076214;28;20135;-73
2022/06/21 01:30:51;;;;;;;4.00;1.50;;;9.60;99.90;;;;;;5094153;28;20123;-73
2022/06/21 01:33:26;;;;;;;4.18;2.03;;;9.70;99.90;;;;;;5093979;28;20036;-73
2022/06/21 01:35:55;;;;;;;4.45;2.60;;;9.60;99.90;;;;;;5093493;28;20051;-73
2022/06/21 01:38:26;;;;;;;3.50;1.55;;;9.50;99.90;;;;;;5075960;28;20392;-73
2022/06/21 01:40:57;;;;;;;4.65;1.48;;;9.50;99.90;;;;;;5093905;28;20111;-73
2022/06/21 01:43:28;;;;;;;4.35;1.50;;;9.50;99.90;;;;;;5094153;28;20408;-73
2022/06/21 01:46:01;;;;;;;4.47;1.83;;;9.40;99.90;;;;;;5093765;28;20194;-73
2022/06/21 01:48:36;;;;;;;5.13;1.60;;;9.50;99.90;;;;;;5093822;28;20074;-73
2022/06/21 01:51:11;;;;;;;3.05;1.38;;;9.50;99.90;;;;;;5075748;28;20044;-73
2022/06/21 01:53:38;;;;;;;3.13;1.27;;;9.50;99.90;;;;;;5093513;28;20048;-73
2022/06/21 01:56:09;;;;;;;4.43;1.40;;;9.40;99.90;;;;;;5093648;28;20044;-73
2022/06/21 01:58:41;;;;;;;3.28;1.42;;;9.20;99.90;;;;;;5093668;28;20040;-72
2022/06/21 02:01:56;;;;;;;4.03;1.20;;;9.10;99.90;;;;;;5093528;28;20051;-72
2022/06/21 02:04:25;;;;;;;3.35;1.38;;;8.90;99.90;;;;;;5074281;28;20408;-73
2022/06/21 02:06:54;;;;;;;2.88;1.30;;;8.70;99.90;;;;;;5074224;28;20071;-72
2022/06/21 02:09:24;;;;;;;2.33;1.38;;;8.80;99.90;;;;;;5093301;28;20052;-73
2022/06/21 02:11:58;;;;;;;4.20;1.80;;;8.70;99.90;;;;;;5093378;28;20123;-72
2022/06/21 02:14:30;;;;;;;3.72;1.60;;;8.70;99.90;;;;;;5092682;28;20445;-73
2022/06/21 02:17:11;;;;;;;3.90;1.40;;;8.50;99.90;;;;;;5093180;28;20044;-73
2022/06/21 02:19:39;;;;;;;6.07;2.22;;;8.50;99.90;;;;;;5075358;28;20579;-73
2022/06/21 02:22:09;;;;;;;3.47;1.70;;;8.50;99.90;;;;;;5092994;28;20052;-73
2022/06/21 02:24:35;;;;;;;5.95;2.03;;;8.40;99.90;;;;;;5093102;28;20047;-72
2022/06/21 02:27:02;;;;;;;2.53;1.52;;;8.50;99.90;;;;;;5092852;28;20370;-72
2022/06/21 02:29:30;;;;;;;3.10;1.63;;;8.30;99.90;;;;;;5075120;28;20099;-73
2022/06/21 02:31:57;;;;;;;4.38;2.00;;;8.30;99.90;;;;;;5092870;28;20393;-73
2022/06/21 02:34:31;;;;;;;3.72;1.90;;;8.30;99.90;;;;;;5074807;28;20100;-73
2022/06/21 02:36:59;;;;;;;2.40;1.70;;;8.40;99.90;;;;;;5092521;28;20060;-73
2022/06/21 02:39:29;;;;;;;4.25;2.03;;;8.40;99.90;;;;;;5092553;28;20051;-73
2022/06/21 02:42:10;;;;;;;3.40;1.98;;;8.30;99.90;;;;;;5074784;28;20059;-73
2022/06/21 02:44:40;;;;;;;3.95;1.85;;;8.30;99.90;;;;;;5092847;28;20052;-73
2022/06/21 02:47:30;;;;;;;4.32;1.65;;;8.20;99.90;;;;;;5092536;28;20097;-73
2022/06/21 02:50:01;;;;;;;4.18;1.90;;;8.20;99.90;;;;;;5091789;28;20575;-73
2022/06/21 02:52:32;;;;;;;2.90;1.55;;;8.10;99.90;;;;;;5092365;28;20048;-73
2022/06/21 02:55:18;;;;;;;3.70;1.85;;;8.10;99.90;;;;;;5092595;28;20044;-73
2022/06/21 02:58:09;;;;;;;3.50;1.60;;;8.00;99.90;;;;;;5092516;28;20093;-73
2022/06/21 03:00:35;;;;;;;3.42;1.70;;;7.90;99.90;;;;;;5074514;28;20093;-73
2022/06/21 03:03:05;;;;;;;9.00;3.03;;;7.90;99.90;;;;;;5092280;28;20052;-73
2022/06/21 03:05:33;;;;;;;17.90;2.85;;;8.00;99.90;;;;;;5092069;28;20055;-73
2022/06/21 03:08:03;;;;;;;5.40;1.67;;;8.10;99.90;;;;;;5091906;28;20040;-73
2022/06/21 03:10:37;;;;;;;2.88;1.35;;;8.10;99.90;;;;;;5074288;28;20126;-73
2022/06/21 03:13:12;;;;;;;6.55;1.98;;;8.10;99.90;;;;;;5091857;28;20439;-73
2022/06/21 03:15:38;;;;;;;19.85;2.70;;;8.10;99.90;;;;;;5074058;28;20048;-73
2022/06/21 03:18:09;;;;;;;7.13;1.83;;;8.20;99.90;;;;;;5092099;28;20069;-73
2022/06/21 03:20:35;;;;;;;2.20;1.60;;;7.70;99.90;;;;;;5092140;28;20080;-73
2022/06/21 03:23:02;;;;;;;3.30;1.67;;;7.60;99.90;;;;;;5091643;28;20534;-73
2022/06/21 03:25:52;;;;;;;3.60;1.90;;;7.50;99.90;;;;;;5091662;28;20085;-73
2022/06/21 03:28:30;;;;;;;3.30;1.75;;;8.10;99.90;;;;;;5076721;28;20052;-73
2022/06/21 03:31:12;;;;;;;2.80;1.58;;;7.40;99.90;;;;;;5092124;28;20101;-73
2022/06/21 03:33:42;;;;;;;2.88;1.58;;;7.40;99.90;;;;;;5092068;28;20052;-73
2022/06/21 03:36:11;;;;;;;4.95;2.22;;;7.40;99.90;;;;;;5091240;28;20524;-72
2022/06/21 03:38:40;;;;;;;5.43;1.98;;;7.40;99.90;;;;;;5091651;28;20436;-73
2022/06/21 03:43:59;;;;;;;3.25;2.30;;;7.50;99.90;;;;;;5091439;28;20589;-73
2022/06/21 03:46:34;;;;;;;3.80;2.17;;;7.60;99.90;;;;;;5091596;28;20040;-73
2022/06/21 03:49:17;;;;;;;3.10;1.90;;;7.80;99.90;;;;;;5091520;28;20122;-74
2022/06/21 03:51:47;;;;;;;4.28;2.17;;;7.80;99.90;;;;;;5091615;28;20377;-73
2022/06/21 03:54:19;;;;;;;20.85;3.83;;;7.80;99.90;;;;;;5091409;28;20406;-73
2022/06/21 03:57:01;;;;;;;3.05;1.92;;;8.30;99.90;;;;;;5091620;28;20152;-73
2022/06/21 03:59:50;;;;;;;4.43;2.45;;;7.80;99.90;;;;;;5091175;28;20404;-74
2022/06/21 04:02:22;;;;;;;2.97;2.40;;;8.20;99.90;;;;;;5091525;28;20106;-74
2022/06/21 04:04:56;;;;;;;2.83;2.17;;;7.80;99.90;;;;;;5091474;28;20138;-73
2022/06/21 04:07:33;;;;;;;3.60;2.40;;;7.90;99.90;;;;;;5090930;28;20059;-74
2022/06/21 04:10:02;;;;;;;3.72;2.17;;;7.80;99.90;;;;;;5073451;28;20479;-74
2022/06/21 04:12:51;;;;;;;2.40;1.83;;;7.90;99.90;;;;;;5091406;28;20681;-74
2022/06/21 04:15:19;;;;;;;4.60;2.90;;;7.80;99.90;;;;;;5091404;28;20109;-74
2022/06/21 04:17:54;;;;;;;5.35;2.83;;;7.90;99.90;;;;;;5091458;28;20043;-74
2022/06/21 04:20:32;;;;;;;5.77;3.10;;;8.00;99.90;;;;;;5091296;28;20438;-73
2022/06/21 04:23:04;;;;;;;5.10;2.58;;;8.20;99.90;;;;;;5090996;28;20056;-73
2022/06/21 04:25:56;;;;;;;5.63;3.00;;;8.30;99.90;;;;;;5091194;28;20067;-74
2022/06/21 04:28:31;;;;;;;3.90;2.88;;;8.50;99.90;;;;;;5073147;28;20083;-73
2022/06/21 04:31:02;;;;;;;4.78;3.40;;;8.60;99.90;;;;;;5073185;28;20388;-74
2022/06/21 04:33:33;;;;;;;5.18;2.78;;;8.80;99.90;;;;;;5073122;28;20109;-74
2022/06/21 04:36:10;;;;;;;3.65;3.05;;;8.90;99.90;;;;;;5090705;28;20083;-73
2022/06/21 04:39:00;;;;;;;4.32;3.05;;;9.10;99.90;;;;;;5075773;28;20055;-73
2022/06/21 04:41:46;;;;;;;4.68;3.40;;;9.20;99.90;;;;;;5094121;28;20523;-73
2022/06/21 04:44:17;;;;;;;6.60;3.40;;;9.30;99.90;;;;;;5094300;28;20052;-73
2022/06/21 04:47:04;;;;;;;6.40;3.55;;;9.40;99.90;;;;;;5095093;28;20117;-73
2022/06/21 04:49:36;;;;;;;7.00;3.63;;;9.60;99.90;;;;;;5094817;28;20483;-74
2022/06/21 04:52:26;;;;;;;6.93;3.50;;;9.70;99.90;;;;;;5094801;28;20075;-75
2022/06/21 04:54:51;;;;;;;6.53;3.15;;;9.90;99.90;;;;;;5094913;28;20052;-74
2022/06/21 04:57:24;;;;;;;5.07;3.38;;;9.90;99.90;;;;;;5094670;28;20048;-74
2022/06/21 04:59:51;;;;;;;5.43;3.38;;;10.20;99.90;;;;;;5076515;28;20564;-74
2022/06/21 05:02:23;;;;;;;7.68;3.10;;;10.20;99.90;;;;;;5094455;28;20090;-73
2022/06/21 05:05:00;;;;;;;4.90;3.15;;;10.30;99.90;;;;;;5094659;28;20565;-73
2022/06/21 05:07:29;;;;;;;4.43;3.00;;;10.40;99.90;;;;;;5075489;28;20531;-74
2022/06/21 05:09:56;;;;;;;4.90;3.22;;;10.50;99.90;;;;;;5094477;28;20093;-74
2022/06/21 05:12:33;;;;;;;5.45;3.40;;;10.50;99.90;;;;;;5094437;28;20077;-73
2022/06/21 05:15:03;;;;;;;4.18;3.10;;;10.60;99.90;;;;;;5094173;28;20051;-74
2022/06/21 05:17:31;;;;;;;6.05;3.30;;;10.60;99.90;;;;;;5094443;28;20085;-74
2022/06/21 05:20:06;;;;;;;5.72;3.38;;;10.60;99.90;;;;;;5076123;28;20387;-73
2022/06/21 05:22:36;;;;;;;5.38;3.05;;;10.70;99.90;;;;;;5094077;28;20051;-73
2022/06/21 05:25:09;;;;;;;5.47;3.05;;;10.70;99.90;;;;;;5094341;28;20408;-75
2022/06/21 05:27:45;;;;;;;4.78;3.97;;;10.80;99.90;;;;;;5075963;28;20493;-74
2022/06/21 05:30:32;;;;;;;6.55;3.60;;;10.80;99.90;;;;;;5094319;28;20048;-74
2022/06/21 05:33:03;;;;;;;6.85;3.60;;;10.90;99.90;;;;;;5093881;28;20040;-74
2022/06/21 05:35:33;;;;;;;6.25;3.63;;;11.10;99.90;;;;;;5094080;28;20054;-74
2022/06/21 05:38:20;;;;;;;6.30;3.45;;;11.20;99.90;;;;;;5093537;28;20063;-74
2022/06/21 05:40:56;;;;;;;5.03;3.70;;;11.20;99.90;;;;;;5093932;28;20056;-73
2022/06/21 05:43:37;;;;;;;6.13;4.15;;;11.30;99.90;;;;;;5093971;28;20051;-74
2022/06/21 05:46:16;;;;;;;7.88;3.38;;;11.40;99.90;;;;;;5075796;28;20051;-74
2022/06/21 05:48:44;;;;;;;4.90;3.25;;;11.40;99.90;;;;;;5093439;28;20058;-74
2022/06/21 05:51:23;;;;;;;6.63;3.88;;;11.50;99.90;;;;;;5058752;28;20551;-74
2022/06/21 05:53:52;;;;;;;5.15;3.63;;;11.60;99.90;;;;;;5093611;28;20055;-74
2022/06/21 05:56:21;;;;;;;5.43;3.80;;;11.70;99.90;;;;;;5093602;28;20056;-74
2022/06/21 05:59:00;;;;;;;5.93;3.70;;;11.80;99.90;;;;;;5093586;28;20052;-74
2022/06/21 06:01:51;;;;;;;5.75;3.72;;;11.90;99.90;;;;;;5093471;28;20131;-74
2022/06/21 06:04:23;;;;;;;8.00;3.83;;;11.90;99.90;;;;;;5093570;28;20083;-74
2022/06/21 06:06:48;;;;;;;8.23;3.97;;;12.00;99.90;;;;;;5092574;28;20637;-74
2022/06/21 06:09:21;;;;;;;6.13;3.75;;;12.10;99.90;;;;;;5093329;28;20134;-72
2022/06/21 06:12:00;;;;;;;6.10;3.90;;;12.20;99.90;;;;;;5093390;28;20048;-73
2022/06/21 06:14:51;;;;;;;4.95;3.42;;;12.30;99.90;;;;;;5093261;28;20059;-73
2022/06/21 06:17:20;;;;;;;6.38;3.53;;;12.30;99.90;;;;;;5093337;28;20040;-74
2022/06/21 06:19:53;;;;;;;7.53;3.85;;;12.40;99.90;;;;;;5093172;28;20083;-74
2022/06/21 06:22:39;;;;;;;7.63;4.05;;;12.50;99.90;;;;;;5075092;28;20427;-74
2022/06/21 06:25:32;;;;;;;7.53;3.35;;;12.70;99.90;;;;;;5075171;28;20040;-74
2022/06/21 06:28:16;;;;;;;6.88;3.72;;;12.90;99.90;;;;;;5092493;28;20044;-73
2022/06/21 06:30:47;;;;;;;6.55;3.30;;;13.20;99.90;;;;;;5075028;28;20078;-72
2022/06/21 06:33:25;;;;;;;5.53;3.42;;;13.40;99.90;;;;;;5092808;28;20036;-66
2022/06/21 06:35:54;;;;;;;7.97;3.80;;;13.60;99.90;;;;;;5093131;28;20051;-66
2022/06/21 06:38:20;;;;;;;4.43;2.65;;;13.80;99.90;;;;;;5092509;28;20501;-66
2022/06/21 06:41:05;;;;;;;3.72;1.80;;;13.90;99.90;;;;;;5092501;28;20058;-66
2022/06/21 06:43:46;;;;;;;3.65;1.63;;;14.10;99.90;;;;;;5092749;28;20407;-66
2022/06/21 06:46:29;;;;;;;4.60;1.20;;;14.20;99.90;;;;;;5092543;28;20048;-66
2022/06/21 06:49:26;;;;;;;3.30;1.80;;;14.20;99.90;;;;;;5092681;28;20044;-66
2022/06/21 06:51:51;;;;;;;3.17;1.70;;;14.30;99.90;;;;;;5092321;28;20051;-67
2022/06/21 06:54:30;;;;;;;3.42;1.80;;;14.40;99.90;;;;;;5074130;28;20484;-66
2022/06/21 06:57:15;;;;;;;5.13;1.60;;;14.50;99.90;;;;;;5092554;28;20052;-67
2022/06/21 06:59:43;;;;;;;4.97;1.80;;;14.60;99.90;;;;;;5092406;28;20087;-67
2022/06/21 07:02:11;;;;;;;4.18;1.23;;;14.70;99.90;;;;;;5073733;28;20665;-67
2022/06/21 07:04:42;;;;;;;3.55;1.40;;;14.90;99.90;;;;;;5092327;28;20044;-66
2022/06/21 07:07:20;;;;;;;4.18;1.65;;;14.90;99.90;;;;;;5091811;28;20071;-72
2022/06/21 07:09:51;;;;;;;4.03;1.60;;;15.00;99.90;;;;;;5065024;28;20491;-66
2022/06/21 07:12:24;;;;;;;4.80;1.67;;;15.10;99.90;;;;;;5087829;28;20121;-66
2022/06/21 07:14:51;;;;;;;5.00;1.50;;;15.10;99.90;;;;;;5091715;28;20084;-67
2022/06/21 07:17:36;;;;;;;4.43;1.80;;;15.10;99.90;;;;;;5091343;28;20108;-66
2022/06/21 07:20:03;;;;;;;4.55;1.58;;;15.30;99.90;;;;;;5091631;28;20241;-67
2022/06/21 07:22:36;;;;;;;3.40;1.35;;;15.40;99.90;;;;;;5086970;28;20061;-68
2022/06/21 07:25:23;;;;;;;3.55;1.60;;;15.50;99.90;;;;;;5069925;28;20045;-67
2022/06/21 07:27:58;;;;;;;3.97;1.63;;;15.50;99.90;;;;;;5086320;28;20472;-68
2022/06/21 07:30:31;;;;;;;2.60;1.60;;;15.50;99.90;;;;;;5072527;28;20044;-67
2022/06/21 07:33:02;;;;;;;3.10;1.40;;;15.60;99.90;;;;;;5073918;28;20048;-67
2022/06/21 07:35:35;;;;;;;4.20;1.40;;;15.70;99.90;;;;;;5091605;28;20105;-67
2022/06/21 07:38:34;;;;;;;3.38;1.63;;;15.80;99.90;;;;;;5090722;28;20051;-67
2022/06/21 07:41:07;;;;;;;2.17;1.40;;;15.90;99.90;;;;;;5084382;28;20138;-67
2022/06/21 07:43:43;;;;;;;4.53;1.58;;;15.70;99.90;;;;;;5091303;28;20047;-67
2022/06/21 07:46:14;;;;;;;2.97;1.20;;;15.50;99.90;;;;;;5090458;28;20115;-67
2022/06/21 07:48:48;;;;;;;3.63;1.45;;;15.40;99.90;;;;;;5091349;28;20063;-68
2022/06/21 07:51:22;;;;;;;4.55;1.80;;;15.30;99.90;;;;;;5073229;28;20625;-67
2022/06/21 07:53:53;;;;;;;4.47;1.73;;;15.60;99.90;;;;;;5072653;28;20055;-67
2022/06/21 07:56:25;;;;;;;3.17;1.75;;;15.70;99.90;;;;;;5090914;28;20511;-68
2022/06/21 07:59:25;;;;;;;3.97;1.52;;;15.60;99.90;;;;;;5091268;28;20098;-67
2022/06/21 08:07:46;;;;;;;4.10;1.40;;;15.50;99.90;;;;;;5089745;28;20047;-67
2022/06/21 08:10:37;;;;;;;4.05;1.30;;;15.70;99.90;;;;;;5090702;28;20457;-67
2022/06/21 08:13:03;;;;;;;2.28;1.48;;;15.90;99.90;;;;;;5082063;28;20087;-68
2022/06/21 08:15:35;;;;;;;1.40;0.90;;;16.00;99.90;;;;;;5096578;28;20059;-67
2022/06/21 08:18:21;;;;;;;2.65;1.35;;;16.10;99.90;;;;;;5097405;28;20055;-68
2022/06/21 08:20:57;;;;;;;;;;;16.20;99.90;;;;;;5098017;28;20052;-68
2022/06/21 08:23:30;;;;;;;3.58;1.23;;;16.30;99.90;;;;;;5097179;28;19935;-67
2022/06/21 08:26:06;;;;;;;2.65;1.10;;;16.30;99.90;;;;;;5079832;28;20048;-67
2022/06/21 08:28:47;;;;;;;3.55;1.30;;;16.10;99.90;;;;;;5097723;28;20043;-68
2022/06/21 08:31:37;;;;;;;4.35;1.20;;;15.90;99.90;;;;;;5097110;28;20054;-67
2022/06/21 08:34:09;;;;;;;2.50;1.00;;;15.70;99.90;;;;;;5097724;28;20131;-67
2022/06/21 08:36:41;;;;;;;3.85;1.17;;;15.60;99.90;;;;;;5096388;28;20036;-67
2022/06/21 08:39:24;;;;;;;3.75;1.33;;;15.60;99.90;;;;;;5079147;28;20052;-68
2022/06/21 08:42:17;;;;;;;2.55;1.38;;;15.70;99.90;;;;;;5097402;28;20113;-67
2022/06/21 08:48:19;;;;;;;2.60;1.42;;;16.30;99.90;;;;;;5097279;28;20534;-67
2022/06/21 08:51:10;;;;;;;2.70;1.20;;;16.60;99.90;;;;;;5078890;28;20055;-69
2022/06/21 08:53:52;;;;;;;3.00;1.40;;;16.80;99.90;;;;;;5096905;28;20286;-67
2022/06/21 08:56:34;;;;;;;2.55;1.23;;;17.00;99.90;;;;;;5097427;28;20044;-67
2022/06/21 08:59:37;;;;;;;4.30;1.20;;;17.10;99.90;;;;;;5096979;28;20051;-67
2022/06/21 09:02:45;;;;;;;4.78;1.63;;;17.20;99.90;;;;;;5079151;28;20048;-67
2022/06/21 09:05:50;;;;;;;2.65;1.73;;;17.20;99.90;;;;;;5069811;28;20135;-67
2022/06/21 09:08:28;;;;;;;5.63;1.60;;;17.30;99.90;;;;;;4992413;28;20081;-67
2022/06/21 09:11:27;;;;;;;5.20;1.50;;;17.30;99.90;;;;;;5049677;28;20076;-67
2022/06/21 09:13:59;;;;;;;5.80;1.40;;;17.30;99.90;;;;;;5054088;28;20056;-67
2022/06/21 09:16:54;;;;;;;3.88;1.25;;;17.50;99.90;;;;;;5057322;28;20049;-67
2022/06/21 09:19:40;;;;;;;2.47;1.50;;;17.50;99.90;;;;;;5054336;28;20449;-67
2022/06/21 09:22:32;;;;;;;4.38;1.20;;;17.50;99.90;;;;;;5055387;28;20056;-68
2022/06/21 09:25:27;;;;;;;3.58;1.33;;;17.40;99.90;;;;;;5051813;28;20413;-68
2022/06/21 09:28:19;;;;;;;3.33;1.35;;;17.50;99.90;;;;;;5051060;28;20128;-67
2022/06/21 09:30:58;;;;;;;2.72;1.33;;;17.60;99.90;;;;;;5020225;28;20356;-67
2022/06/21 09:33:44;;;;;;;2.22;1.00;;;17.80;99.90;;;;;;5052258;28;20049;-67
2022/06/21 09:36:24;;;;;;;2.95;1.30;;;17.90;99.90;;;;;;5051805;28;20041;-67
2022/06/21 09:39:05;;;;;;;3.45;1.73;;;18.00;99.90;;;;;;5052276;28;20048;-68
2022/06/21 09:41:41;;;;;;;4.70;1.48;;;18.00;99.90;;;;;;5052118;28;20049;-68
2022/06/21 09:44:13;;;;;;;3.03;1.50;;;18.10;99.90;;;;;;5052076;28;20049;-68
2022/06/21 09:46:55;;;;;;;3.65;1.20;;;18.10;99.90;;;;;;5052270;28;20045;-71
2022/06/21 09:49:36;;;;;;;3.17;1.55;;;18.20;99.90;;;;;;5052073;28;20053;-68
2022/06/21 09:52:07;;;;;;;3.95;1.08;;;18.20;99.90;;;;;;5051560;28;20186;-69
2022/06/21 09:54:36;;;;;;;2.70;1.40;;;18.20;99.90;;;;;;5052154;28;20049;-68
2022/06/21 09:57:16;;;;;;;3.05;1.23;;;18.30;99.90;;;;;;5051919;28;20048;-68
2022/06/21 09:59:55;;;;;;;4.55;1.50;;;18.20;99.90;;;;;;5051719;28;20512;-66
2022/06/21 10:02:39;;;;;;;2.53;1.10;;;18.00;99.90;;;;;;5051942;28;20123;-66
2022/06/21 10:05:24;;;;;;;2.72;1.40;;;17.80;99.90;;;;;;5052361;28;20049;-65
2022/06/21 10:07:56;;;;;;;3.17;1.13;;;17.80;99.90;;;;;;5070612;28;20088;-67
2022/06/21 10:10:34;;;;;;;3.45;1.27;;;17.80;99.90;;;;;;5071813;28;20048;-66
2022/06/21 10:13:05;;;;;;;2.72;1.00;;;17.90;99.90;;;;;;5070708;28;20098;-65
2022/06/21 10:16:00;;;;;;;3.17;1.35;;;18.00;99.90;;;;;;5070443;28;20048;-68
2022/06/21 10:18:35;;;;;;;2.92;1.20;;;17.90;99.90;;;;;;4998565;28;20475;-66
2022/06/21 10:21:29;;;;;;;1.98;1.20;;;18.00;99.90;;;;;;5068780;28;20045;-65
2022/06/21 10:24:03;;;;;;;3.25;1.10;;;18.00;99.90;;;;;;5071517;28;20408;-65
2022/06/21 10:26:35;;;;;;;2.58;1.23;;;18.10;99.90;;;;;;5071309;28;20514;-66
2022/06/21 10:29:31;;;;;;;2.15;0.95;;;18.20;99.90;;;;;;5052694;28;20132;-65
2022/06/21 10:32:15;;;;;;;1.70;1.10;;;18.20;99.90;;;;;;5051520;28;20135;-67
2022/06/21 10:35:26;;;;;;;3.03;1.35;;;18.30;99.90;;;;;;5068491;28;20076;-65
2022/06/21 10:37:51;;;;;;;3.53;1.02;;;18.30;99.90;;;;;;5039254;28;20044;-66
2022/06/21 10:40:17;;;;;;;3.92;1.00;;;18.40;99.90;;;;;;5071059;28;20263;-65
2022/06/21 10:42:55;;;;;;;6.07;1.38;;;18.50;99.90;;;;;;5070540;28;20531;-65
2022/06/21 10:45:23;;;;;;;2.15;1.05;;;18.60;99.90;;;;;;5070227;28;20048;-66
2022/06/21 10:48:24;;;;;;;2.05;1.00;;;18.70;99.90;;;;;;5071162;28;20098;-66
2022/06/21 10:51:03;;;;;;;2.08;0.85;;;18.80;99.90;;;;;;5069417;28;20052;-65
2022/06/21 10:53:55;;;;;;;1.65;0.82;;;18.80;99.90;;;;;;5070849;28;20101;-66
2022/06/21 11:02:54;;;;;;;3.42;0.98;;;19.20;99.90;;;;;;5070926;28;20063;-66
2022/06/21 11:05:55;;;;;;;2.45;1.20;;;19.30;99.90;;;;;;5070984;28;20405;-66
2022/06/21 11:08:43;;;;;;;2.55;1.00;;;19.20;99.90;;;;;;5090129;28;20044;-65
2022/06/21 11:11:27;;;;;;;3.65;1.00;;;19.30;99.90;;;;;;5090621;28;20105;-66
2022/06/21 11:14:14;;;;;;;3.17;1.00;;;19.40;99.90;;;;;;5090442;28;20048;-66
2022/06/21 11:17:00;;;;;;;2.83;1.20;;;19.30;99.90;;;;;;5072529;28;20135;-66
2022/06/21 11:19:44;;;;;;;3.95;1.10;;;19.00;99.90;;;;;;5072489;28;20048;-67
2022/06/21 11:22:22;;;;;;;2.45;1.00;;;18.80;99.90;;;;;;5070722;28;20401;-66
2022/06/21 11:25:06;;;;;;;3.55;1.00;;;18.80;99.90;;;;;;5070127;28;20122;-65
2022/06/21 11:27:38;;;;;;;3.45;1.20;;;18.90;99.90;;;;;;5076097;28;20040;-65
2022/06/21 11:30:18;;;;;;;2.33;1.17;;;19.00;99.90;;;;;;5090413;28;20396;-66
2022/06/21 11:32:57;;;;;;;3.67;1.40;;;19.00;99.90;;;;;;5090478;28;20083;-65
2022/06/21 11:35:29;;;;;;;2.75;1.20;;;18.80;99.90;;;;;;5072942;28;20091;-66
2022/06/21 11:38:14;;;;;;;2.50;1.13;;;18.70;99.90;;;;;;5089798;28;20044;-67
2022/06/21 11:40:53;;;;;;;2.67;1.05;;;18.70;99.90;;;;;;5072098;28;20075;-66
2022/06/21 11:43:42;;;;;;;2.53;0.88;;;18.80;99.90;;;;;;5086689;28;20044;-66
2022/06/21 11:46:40;;;;;;;2.30;0.90;;;18.90;99.90;;;;;;5089924;28;20047;-66
2022/06/21 11:49:27;;;;;;;1.70;0.77;;;19.10;99.90;;;;;;5071646;28;20088;-68
2022/06/21 11:51:58;;;;;;;2.58;0.77;;;19.20;99.90;;;;;;5089626;28;20101;-66
2022/06/21 11:54:41;;;;;;;3.35;1.10;;;19.30;99.90;;;;;;5089792;28;20054;-66
2022/06/21 11:57:41;;;;;;;3.25;1.50;;;19.30;99.90;;;;;;5089879;28;20089;-66
2022/06/21 12:00:16;;;;;;;2.92;1.10;;;19.50;99.90;;;;;;5084699;28;20087;-66
2022/06/21 12:02:55;;;;;;;1.67;0.70;;;19.60;99.90;;;;;;5089636;28;20059;-66
2022/06/21 12:05:45;;;;;;;1.90;1.10;;;19.70;99.90;;;;;;5071130;28;20056;-66
2022/06/21 12:08:29;;;;;;;2.08;1.25;;;19.80;99.90;;;;;;5070543;28;20098;-65
2022/06/21 12:11:19;;;;;;;5.20;1.00;;;19.80;99.90;;;;;;5071698;28;20109;-66
2022/06/21 12:13:56;;;;;;;1.92;0.82;;;19.90;99.90;;;;;;5089353;28;20078;-67
2022/06/21 12:16:33;;;;;;;1.55;0.70;;;20.00;99.90;;;;;;5089886;28;20069;-67
2022/06/21 12:19:07;;;;;;;3.15;0.85;;;20.10;99.90;;;;;;5089215;28;20048;-66
2022/06/21 12:21:40;;;;;;;3.20;1.10;;;20.10;99.90;;;;;;5071769;28;20044;-66
2022/06/21 12:24:14;;;;;;;1.38;0.80;;;20.20;99.90;;;;;;5071475;28;20115;-67
2022/06/21 12:26:42;;;;;;;2.15;1.00;;;20.20;99.90;;;;;;5068947;28;20046;-66
2022/06/21 12:29:14;;;;;;;1.58;0.90;;;20.20;99.90;;;;;;5088904;28;20130;-69
2022/06/21 12:31:48;;;;;;;3.88;1.10;;;20.20;99.90;;;;;;5089738;28;20040;-67
2022/06/21 12:34:29;;;;;;;1.40;0.80;;;20.20;99.90;;;;;;5089328;28;20131;-66
2022/06/21 12:37:05;;;;;;;2.30;1.02;;;20.10;99.90;;;;;;5089111;28;20118;-67
2022/06/21 12:39:56;;;;;;;1.92;0.80;;;20.10;99.90;;;;;;5089468;28;20095;-67
2022/06/21 12:43:06;;;;;;;1.40;0.80;;;20.00;99.90;;;;;;5089268;28;20395;-67
2022/06/21 12:46:03;;;;;;;2.25;0.77;;;20.00;99.90;;;;;;5058267;28;20063;-66
2022/06/21 12:48:38;;;;;;;2.00;0.80;;;20.10;99.90;;;;;;5032596;28;20091;-69
2022/06/21 12:51:28;;;;;;;2.25;0.95;;;20.10;99.90;;;;;;5089269;28;20047;-69
2022/06/21 12:54:12;;;;;;;2.33;0.82;;;20.20;99.90;;;;;;5071634;28;20113;-66
2022/06/21 12:57:05;;;;;;;2.42;1.00;;;20.20;99.90;;;;;;5088723;28;20503;-66
2022/06/21 12:59:46;;;;;;;2.35;0.90;;;20.30;99.90;;;;;;5091873;28;20121;-66
2022/06/21 13:02:37;;;;;;;2.47;1.00;;;20.30;99.90;;;;;;5093099;28;20048;-66
2022/06/21 13:05:15;;;;;;;1.90;0.90;;;20.40;99.90;;;;;;5092810;28;20056;-67
2022/06/21 13:08:18;;;;;;;1.17;0.60;;;20.40;99.90;;;;;;5053809;28;20053;-66
2022/06/21 13:11:19;;;;;;;3.72;0.98;;;20.50;99.90;;;;;;5072373;28;20052;-67
2022/06/21 13:14:03;;;;;;;1.90;0.82;;;20.60;99.90;;;;;;5072926;28;20453;-67
2022/06/21 13:17:17;;;;;;;1.63;0.77;;;20.70;99.90;;;;;;5072916;28;20056;-67
2022/06/21 13:20:04;;;;;;;2.33;0.73;;;20.80;99.90;;;;;;5039459;28;20056;-67
2022/06/21 13:23:01;;;;;;;1.65;0.77;;;20.90;99.90;;;;;;5077083;28;20055;-67
2022/06/21 13:25:51;;;;;;;2.30;0.93;;;21.00;99.90;;;;;;5066230;28;20052;-67
2022/06/21 13:28:38;;;;;;;2.33;0.80;;;21.10;99.90;;;;;;5078925;28;20059;-67
2022/06/21 13:31:27;;;;;;;2.72;1.00;;;21.10;99.90;;;;;;5072406;28;20509;-67
2022/06/21 13:34:17;;;;;;;2.42;0.85;;;21.20;99.90;;;;;;5082961;28;20051;-67
2022/06/21 13:36:49;;;;;;;2.95;0.93;;;21.30;99.90;;;;;;5074251;28;20132;-68
2022/06/21 13:39:36;;;;;;;3.70;0.90;;;21.20;99.90;;;;;;5091947;28;20044;-68
2022/06/21 13:42:38;;;;;;;2.28;0.85;;;21.10;99.90;;;;;;5089486;28;20036;-67
2022/06/21 13:45:22;;;;;;;2.53;1.05;;;21.10;99.90;;;;;;5084561;28;20466;-67
2022/06/21 13:48:20;;;;;;;3.58;0.90;;;21.00;99.90;;;;;;5092247;28;20055;-67
2022/06/21 13:51:08;;;;;;;2.03;0.77;;;20.90;99.90;;;;;;5082487;28;20483;-67
2022/06/21 13:53:46;;;;;;;2.45;0.80;;;20.90;99.90;;;;;;5091562;28;20080;-68
2022/06/21 13:56:24;;;;;;;1.63;0.70;;;21.00;99.90;;;;;;5090031;28;20113;-67
2022/06/21 13:59:01;;;;;;;3.22;0.82;;;21.10;99.90;;;;;;5092237;28;20089;-67
2022/06/21 14:01:49;;;;;;;2.15;0.80;;;21.20;99.90;;;;;;5092170;28;20050;-67
2022/06/21 14:04:37;;;;;;;2.72;1.05;;;21.20;99.90;;;;;;5091562;28;20040;-67
2022/06/21 14:07:13;;;;;;;1.70;1.10;;;21.20;99.90;;;;;;5054197;28;20130;-67